WIII/CGK METAR and TAF weather

Enter ICAO airport designator
Station Type Date Time Source
WIII METAR 2021/09/24 06:00 UTC NOAA

WIII 240600Z 06018KT 9999 FEW021 33/25 Q1008 NOSIG


Station Type Date Time Source
WIII Decoded METAR 2021/09/24 06:00 UTC NOAA

Jakarta / Soekarno-Hatta, Indonesia (WIII) 06-07S 106-39E 8M
Sep 24, 2021 - 02:00 AM EDT / 2021.09.24 0600 UTC
Wind: from the ENE (060 degrees) at 21 MPH (18 KT):0
Visibility: greater than 7 mile(s):0
Sky conditions: mostly clear
Temperature: 91 F (33 C)
Heat index: 103.5 F (39.7 C):1
Dew Point: 77 F (25 C)
Relative Humidity: 62%
Pressure (altimeter): 29.77 in. Hg (1008 hPa)
ob: WIII 240600Z 06018KT 9999 FEW021 33/25 Q1008 NOSIG
cycle: 6

Station Type Date Time Source
WIII TAF 2021/09/24 06:43 UTC NOAA

TAF WIII 240500Z 2406/2512 05015KT 9000 FEW021
BECMG 2411/2413 10008KT
BECMG 2415/2417 5000 HZ
TEMPO 2418/2421 -TSRA FEW018CB BKN020
BECMG 2501/2503 07012KT 9000 NSW
TEMPO 2507/2510 VCTS FEW020CB

Example: see airport list